createdAt,value
2018-03-26T00:01:12.663Z,78.97
2018-03-26T00:03:39.047Z,75.97
2018-03-26T00:06:06.209Z,78.30
2018-03-26T00:08:32.757Z,78.87
2018-03-26T00:10:59.168Z,96.93
2018-03-26T00:13:26.337Z,80.20
2018-03-26T00:15:52.740Z,81.37
2018-03-26T00:18:19.871Z,79.47
2018-03-26T00:20:46.293Z,74.20
2018-03-26T00:23:12.671Z,89.00
2018-03-26T00:25:39.052Z,88.20
2018-03-26T00:28:05.716Z,89.62
2018-03-26T00:30:32.093Z,76.03
2018-03-26T00:32:58.532Z,84.10
2018-03-26T00:35:24.914Z,85.37
2018-03-26T00:37:52.071Z,85.12
2018-03-26T00:40:19.224Z,79.53
2018-03-26T00:42:46.371Z,71.50
2018-03-26T00:45:13.515Z,81.40
2018-03-26T00:47:40.647Z,83.23
2018-03-26T00:50:07.053Z,81.50
2018-03-26T00:52:33.528Z,86.30
2018-03-26T00:55:00.660Z,87.60
2018-03-26T00:57:27.079Z,78.80
2018-03-26T00:59:53.489Z,86.07
2018-03-26T01:02:19.905Z,75.22
2018-03-26T01:04:46.312Z,80.82
2018-03-26T01:07:13.441Z,77.53
2018-03-26T01:09:39.835Z,81.05
2018-03-26T01:12:06.229Z,79.45
2018-03-26T01:14:33.366Z,86.43
2018-03-26T01:16:59.751Z,89.18
2018-03-26T01:19:26.268Z,86.67
2018-03-26T01:21:52.678Z,84.15
2018-03-26T01:24:19.807Z,76.93
2018-03-26T01:26:46.186Z,90.57
2018-03-26T01:29:12.594Z,96.85
2018-03-26T01:31:39.715Z,81.75
2018-03-26T01:34:06.115Z,81.43
2018-03-26T01:36:32.499Z,85.87
2018-03-26T01:38:59.633Z,78.53
2018-03-26T01:41:26.013Z,78.47
2018-03-26T01:43:52.388Z,86.15
2018-03-26T01:46:18.786Z,76.78
2018-03-26T01:48:45.172Z,90.25
2018-03-26T01:51:12.318Z,83.45
2018-03-26T01:53:39.452Z,92.60
2018-03-26T01:56:05.846Z,94.18
2018-03-26T01:58:32.361Z,135.70
2018-03-26T02:00:58.768Z,98.65
2018-03-26T02:03:25.900Z,87.25
2018-03-26T02:05:52.327Z,88.18
2018-03-26T02:08:18.734Z,93.60
2018-03-26T02:10:45.114Z,82.60
2018-03-26T02:13:12.283Z,89.50
2018-03-26T02:15:38.694Z,91.22
2018-03-26T02:18:05.880Z,89.32
2018-03-26T02:20:32.275Z,84.43
2018-03-26T02:22:58.679Z,75.15
2018-03-26T02:25:25.059Z,80.40
2018-03-26T02:27:51.772Z,71.62
2018-03-26T02:30:18.165Z,83.20
2018-03-26T02:32:44.545Z,80.03
2018-03-26T02:35:11.679Z,81.28
2018-03-26T02:37:38.080Z,72.70
2018-03-26T02:40:04.514Z,77.35
2018-03-26T02:42:30.905Z,78.05
2018-03-26T02:44:57.297Z,92.15
2018-03-26T02:47:23.686Z,79.95
2018-03-26T02:49:50.082Z,105.37
2018-03-26T02:52:16.477Z,87.62
2018-03-26T02:54:42.852Z,80.70
2018-03-26T02:57:09.982Z,92.75
2018-03-26T02:59:36.450Z,98.93
2018-03-26T03:02:03.618Z,91.32
2018-03-26T03:04:30.016Z,91.90
2018-03-26T03:06:57.157Z,76.85
2018-03-26T03:09:23.588Z,81.45
2018-03-26T03:11:49.989Z,81.32
2018-03-26T03:14:16.366Z,74.28
2018-03-26T03:16:43.481Z,81.53
2018-03-26T03:19:09.872Z,91.07
2018-03-26T03:21:36.281Z,86.50
2018-03-26T03:24:03.452Z,87.85
2018-03-26T03:26:29.851Z,99.82
2018-03-26T03:28:56.226Z,85.47
2018-03-26T03:31:22.623Z,85.00
2018-03-26T03:33:49.749Z,94.43
2018-03-26T03:36:16.128Z,90.05
2018-03-26T03:38:42.508Z,91.28
2018-03-26T03:41:08.921Z,83.72
2018-03-26T03:43:35.304Z,93.55
2018-03-26T03:46:02.476Z,91.68
2018-03-26T03:48:28.868Z,79.97
2018-03-26T03:50:55.311Z,81.03
2018-03-26T03:53:21.874Z,94.65
2018-03-26T03:55:48.244Z,94.28
2018-03-26T03:58:14.620Z,107.72
2018-03-26T04:00:41.754Z,92.93
2018-03-26T04:03:08.864Z,95.62
2018-03-26T04:05:35.238Z,93.55
2018-03-26T04:08:01.648Z,90.30
2018-03-26T04:10:28.038Z,98.40
2018-03-26T04:12:54.407Z,95.07
2018-03-26T04:15:20.806Z,102.45
2018-03-26T04:17:47.197Z,89.95
2018-03-26T04:20:17.657Z,93.37
2018-03-26T04:22:44.050Z,103.57
2018-03-26T04:25:11.961Z,90.95
2018-03-26T04:27:38.359Z,100.18
2018-03-26T04:30:05.545Z,79.72
2018-03-26T04:32:31.920Z,91.85
2018-03-26T04:34:58.303Z,89.45
2018-03-26T04:37:24.696Z,96.95
2018-03-26T04:39:51.074Z,105.37
2018-03-26T04:42:17.446Z,93.80
2018-03-26T04:44:43.877Z,92.43
2018-03-26T04:47:10.260Z,90.47
2018-03-26T04:49:36.659Z,90.32
2018-03-26T04:52:03.100Z,103.90
2018-03-26T04:54:30.240Z,95.10
2018-03-26T04:56:57.366Z,91.30
2018-03-26T04:59:23.745Z,103.55
2018-03-26T05:01:50.112Z,105.20
2018-03-26T05:04:16.545Z,107.40
2018-03-26T05:06:42.936Z,105.37
2018-03-26T05:09:09.496Z,84.47
2018-03-26T05:11:35.923Z,98.70
2018-03-26T05:14:02.320Z,81.40
2018-03-26T05:16:29.453Z,93.45
2018-03-26T05:18:55.833Z,99.50
2018-03-26T05:21:22.238Z,100.85
2018-03-26T05:23:49.367Z,97.25
2018-03-26T05:26:15.766Z,100.80
2018-03-26T05:28:42.161Z,99.68
2018-03-26T05:31:08.898Z,117.47
2018-03-26T05:33:35.321Z,96.07
2018-03-26T05:36:02.477Z,87.22
2018-03-26T05:38:28.867Z,94.60
2018-03-26T05:40:55.317Z,93.30
2018-03-26T05:43:21.700Z,106.80
2018-03-26T05:45:48.100Z,104.38
2018-03-26T05:48:15.223Z,100.70
2018-03-26T05:50:41.655Z,107.32
2018-03-26T05:53:08.062Z,98.87
2018-03-26T05:55:34.525Z,102.93
2018-03-26T05:58:00.918Z,103.03
2018-03-26T06:00:27.299Z,101.28
2018-03-26T06:02:53.704Z,108.77
2018-03-26T06:05:20.104Z,104.53
2018-03-26T06:07:46.495Z,105.93
2018-03-26T06:10:13.715Z,103.03
2018-03-26T06:12:40.110Z,100.03
2018-03-26T06:15:06.487Z,91.73
2018-03-26T06:17:32.915Z,85.57
2018-03-26T06:19:59.360Z,96.23
2018-03-26T06:22:25.803Z,90.97
2018-03-26T06:24:52.284Z,94.07
2018-03-26T06:27:18.716Z,85.90
2018-03-26T06:29:45.168Z,86.20
2018-03-26T06:32:11.653Z,82.67
2018-03-26T06:34:38.789Z,88.60
2018-03-26T06:37:20.085Z,101.53
2018-03-26T06:39:47.215Z,100.87
2018-03-26T06:42:13.592Z,109.90
2018-03-26T06:44:39.989Z,155.93
2018-03-26T06:47:07.153Z,171.00
2018-03-26T06:49:34.283Z,118.37
2018-03-26T06:52:00.760Z,104.00
2018-03-26T06:54:27.158Z,89.90
2018-03-26T06:56:54.421Z,113.27
2018-03-26T06:59:21.569Z,86.60
2018-03-26T07:01:48.728Z,90.53
2018-03-26T07:04:15.177Z,103.40
2018-03-26T07:06:41.573Z,77.30
2018-03-26T07:09:08.721Z,173.23
2018-03-26T07:11:35.854Z,78.83
2018-03-26T07:14:02.296Z,73.60
2018-03-26T07:16:28.731Z,82.43
2018-03-26T07:18:55.895Z,69.97
2018-03-26T07:21:23.036Z,114.67
2018-03-26T07:23:50.176Z,90.23
2018-03-26T07:26:18.098Z,85.47
2018-03-26T07:28:44.502Z,79.60
2018-03-26T07:31:11.640Z,78.47
2018-03-26T07:33:38.767Z,74.50
2018-03-26T07:36:05.168Z,76.50
2018-03-26T07:38:31.578Z,88.70
2018-03-26T07:40:57.959Z,94.60
2018-03-26T07:43:24.368Z,77.97
2018-03-26T07:45:50.763Z,70.53
2018-03-26T07:48:17.163Z,76.20
2018-03-26T07:50:43.561Z,141.53
2018-03-26T07:53:09.976Z,77.37
2018-03-26T07:55:36.363Z,86.83
2018-03-26T07:58:02.787Z,90.00
2018-03-26T08:00:29.256Z,77.83
2018-03-26T08:02:56.390Z,84.50
2018-03-26T08:05:23.522Z,73.13
2018-03-26T08:07:49.920Z,77.63
2018-03-26T08:10:16.329Z,89.50
2018-03-26T08:12:42.712Z,74.97
2018-03-26T08:15:09.140Z,86.47
2018-03-26T08:17:35.561Z,82.03
2018-03-26T08:20:01.955Z,83.90
2018-03-26T08:22:29.078Z,155.73
2018-03-26T08:24:56.272Z,73.47
2018-03-26T08:27:22.663Z,69.93
2018-03-26T08:29:49.809Z,78.70
2018-03-26T08:32:16.928Z,114.60
2018-03-26T08:34:43.307Z,82.17
2018-03-26T08:37:10.447Z,110.03
2018-03-26T08:39:37.596Z,80.13
2018-03-26T08:42:04.743Z,100.63
2018-03-26T08:44:31.868Z,84.57
2018-03-26T08:46:58.289Z,110.83
2018-03-26T08:49:24.707Z,70.83
2018-03-26T08:51:51.096Z,71.03
2018-03-26T08:54:18.234Z,76.83
2018-03-26T08:56:45.353Z,70.87
2018-03-26T08:59:11.734Z,65.60
2018-03-26T09:01:38.855Z,71.67
2018-03-26T09:04:05.274Z,70.70
2018-03-26T09:06:31.806Z,71.87
2018-03-26T09:08:58.228Z,73.30
2018-03-26T09:11:24.610Z,75.60
2018-03-26T09:13:51.732Z,85.67
2018-03-26T09:16:18.126Z,70.40
2018-03-26T09:18:44.518Z,71.13
2018-03-26T09:21:11.735Z,83.40
2018-03-26T09:23:38.148Z,65.43
2018-03-26T09:26:04.607Z,68.33
2018-03-26T09:28:31.023Z,71.10
2018-03-26T09:30:57.475Z,74.10
2018-03-26T09:33:23.865Z,86.83
2018-03-26T09:35:50.467Z,68.77
2018-03-26T09:38:17.659Z,68.93
2018-03-26T09:40:44.102Z,61.93
2018-03-26T09:43:10.486Z,93.43
2018-03-26T09:45:37.624Z,65.00
2018-03-26T09:48:05.495Z,68.40
2018-03-26T09:50:33.384Z,90.83
2018-03-26T09:53:00.532Z,63.47
2018-03-26T09:55:27.668Z,69.97
2018-03-26T09:57:54.077Z,68.63
2018-03-26T10:00:21.484Z,60.70
2018-03-26T10:02:47.854Z,62.17
2018-03-26T10:05:14.321Z,73.97
2018-03-26T10:07:41.465Z,66.97
2018-03-26T10:10:07.854Z,64.93
2018-03-26T10:12:34.243Z,59.63
2018-03-26T10:15:01.344Z,55.57
2018-03-26T10:17:27.743Z,58.23
2018-03-26T10:19:54.148Z,66.03
2018-03-26T10:22:20.610Z,59.90
2018-03-26T10:24:47.867Z,59.27
2018-03-26T10:27:14.252Z,56.70
2018-03-26T10:29:41.393Z,71.83
2018-03-26T10:32:07.782Z,56.20
2018-03-26T10:34:34.182Z,60.30
2018-03-26T10:37:01.303Z,53.00
2018-03-26T10:39:27.686Z,53.00
2018-03-26T10:41:54.804Z,70.50
2018-03-26T10:44:21.197Z,56.03
2018-03-26T10:46:47.643Z,51.30
2018-03-26T10:49:14.044Z,50.93
2018-03-26T10:51:40.420Z,70.73
2018-03-26T10:54:08.290Z,79.17
2018-03-26T10:56:34.701Z,57.17
2018-03-26T10:59:01.105Z,46.40
2018-03-26T11:01:27.489Z,62.60
2018-03-26T11:03:55.372Z,48.67
2018-03-26T11:06:22.581Z,49.90
2018-03-26T11:08:48.980Z,54.57
2018-03-26T11:11:15.389Z,52.77
2018-03-26T11:13:42.509Z,47.60
2018-03-26T11:16:08.912Z,49.50
2018-03-26T11:18:35.326Z,51.33
2018-03-26T11:21:01.749Z,47.40
2018-03-26T11:23:28.884Z,51.70
2018-03-26T11:25:56.021Z,48.83
2018-03-26T11:28:23.042Z,55.17
2018-03-26T11:30:49.580Z,55.40
2018-03-26T11:33:16.060Z,51.57
2018-03-26T11:35:43.210Z,120.10
2018-03-26T11:38:10.343Z,53.77
2018-03-26T11:40:36.719Z,52.03
2018-03-26T11:43:03.108Z,88.80
2018-03-26T11:45:30.231Z,53.60
2018-03-26T11:47:57.359Z,66.70
2018-03-26T11:50:23.791Z,50.40
2018-03-26T11:52:50.208Z,49.13
2018-03-26T11:55:16.641Z,49.17
2018-03-26T11:57:43.751Z,51.40
2018-03-26T12:00:10.931Z,59.37
2018-03-26T12:02:37.348Z,50.53
2018-03-26T12:05:03.773Z,56.00
2018-03-26T12:07:30.166Z,49.67
2018-03-26T12:09:56.552Z,49.77
2018-03-26T12:12:23.816Z,52.10
2018-03-26T12:14:50.218Z,53.57
2018-03-26T12:17:16.642Z,50.60
2018-03-26T12:19:53.188Z,45.00
2018-03-26T12:22:19.556Z,51.03
2018-03-26T12:25:10.637Z,48.00
2018-03-26T12:27:49.218Z,56.10
2018-03-26T12:30:16.695Z,53.20
2018-03-26T12:32:43.165Z,52.03
2018-03-26T12:35:21.727Z,51.10
2018-03-26T12:37:48.118Z,50.83
2018-03-26T12:40:26.896Z,56.53
2018-03-26T12:42:53.316Z,50.47
2018-03-26T12:45:32.028Z,50.40
2018-03-26T12:47:58.419Z,50.20
2018-03-26T12:50:37.160Z,48.37
2018-03-26T12:53:04.331Z,46.80
2018-03-26T12:55:31.456Z,46.70
2018-03-26T12:58:10.931Z,46.00
2018-03-26T13:00:37.312Z,53.77
2018-03-26T13:03:05.252Z,51.23
2018-03-26T13:05:31.694Z,58.60
2018-03-26T13:07:58.140Z,46.97
2018-03-26T13:10:24.543Z,52.83
2018-03-26T13:12:50.948Z,47.87
2018-03-26T13:15:17.331Z,51.80
2018-03-26T13:17:43.727Z,52.27
2018-03-26T13:20:10.148Z,43.20
2018-03-26T13:22:36.552Z,45.70
2018-03-26T13:25:02.983Z,46.57
2018-03-26T13:27:29.376Z,46.83
2018-03-26T13:29:55.804Z,47.80
2018-03-26T13:32:22.211Z,48.80
2018-03-26T13:34:48.597Z,47.53
2018-03-26T13:37:15.012Z,56.13
2018-03-26T13:39:41.532Z,57.63
2018-03-26T13:42:07.920Z,48.20
2018-03-26T13:44:34.319Z,68.60
2018-03-26T13:47:00.783Z,59.93
2018-03-26T13:49:27.161Z,323.87
2018-03-26T13:51:53.547Z,47.87
2018-03-26T13:54:20.059Z,51.97
2018-03-26T13:56:46.465Z,46.43
2018-03-26T13:59:12.859Z,57.90
2018-03-26T14:01:39.992Z,53.10
2018-03-26T14:04:06.379Z,51.13
2018-03-26T14:06:32.777Z,47.03
2018-03-26T14:09:12.128Z,48.03
2018-03-26T14:11:50.878Z,52.77
2018-03-26T14:14:29.609Z,52.97
2018-03-26T14:17:08.296Z,47.10
2018-03-26T14:19:34.696Z,48.43
2018-03-26T14:22:01.843Z,50.20
2018-03-26T14:24:28.976Z,50.30
2018-03-26T14:26:56.869Z,46.57
2018-03-26T14:29:24.001Z,43.03
2018-03-26T14:31:51.134Z,49.17
2018-03-26T14:34:17.542Z,51.03
2018-03-26T14:36:43.956Z,46.53
2018-03-26T14:39:10.339Z,53.17
2018-03-26T14:41:37.209Z,48.97
2018-03-26T14:44:03.614Z,50.47
2018-03-26T14:46:30.011Z,50.00
2018-03-26T14:48:56.414Z,49.47
2018-03-26T14:51:22.793Z,48.67
2018-03-26T14:53:49.199Z,48.73
2018-03-26T14:56:15.583Z,48.20
2018-03-26T14:58:42.718Z,52.20
2018-03-26T15:01:10.097Z,57.47
2018-03-26T15:03:37.273Z,49.37
2018-03-26T15:06:03.693Z,52.90
2018-03-26T15:08:30.844Z,51.70
2018-03-26T15:10:57.951Z,56.30
2018-03-26T15:13:24.342Z,52.80
2018-03-26T15:15:50.737Z,51.77
2018-03-26T15:18:17.896Z,54.87
2018-03-26T15:20:45.028Z,49.47
2018-03-26T15:23:11.407Z,56.67
2018-03-26T15:25:37.786Z,55.23
2018-03-26T15:28:04.196Z,58.00
2018-03-26T15:30:30.576Z,86.50
2018-03-26T15:32:57.695Z,66.43
2018-03-26T15:35:24.077Z,58.30
2018-03-26T15:37:50.472Z,59.87
2018-03-26T15:40:17.603Z,56.30
2018-03-26T15:42:44.198Z,52.80
2018-03-26T15:45:10.605Z,56.00
2018-03-26T15:47:37.773Z,56.60
2018-03-26T15:50:04.217Z,55.43
2018-03-26T15:52:30.591Z,56.97
2018-03-26T15:54:58.453Z,61.67
2018-03-26T15:57:25.728Z,58.43
2018-03-26T15:59:52.907Z,59.63
2018-03-26T16:02:19.384Z,72.10
2018-03-26T16:04:45.777Z,65.00
2018-03-26T16:07:12.168Z,72.43
2018-03-26T16:09:38.561Z,63.67
2018-03-26T16:12:05.021Z,63.00
2018-03-26T16:14:32.903Z,63.60
2018-03-26T16:16:59.296Z,64.83
2018-03-26T16:19:25.706Z,55.60
2018-03-26T16:21:52.083Z,60.10
2018-03-26T16:24:18.485Z,61.47
2018-03-26T16:26:44.875Z,68.77
2018-03-26T16:29:12.000Z,65.57
2018-03-26T16:31:38.425Z,70.67
2018-03-26T16:34:04.795Z,68.40
2018-03-26T16:36:31.932Z,70.60
2018-03-26T16:38:59.061Z,89.07
2018-03-26T16:41:37.632Z,69.50
2018-03-26T16:44:04.078Z,85.83
2018-03-26T16:46:30.492Z,81.33
2018-03-26T16:48:56.896Z,69.43
2018-03-26T16:51:23.282Z,65.13
2018-03-26T16:53:49.671Z,68.80
2018-03-26T16:56:16.814Z,66.37
2018-03-26T16:58:43.959Z,68.43
2018-03-26T17:01:10.383Z,70.77
2018-03-26T17:03:37.580Z,70.10
2018-03-26T17:06:04.008Z,67.77
2018-03-26T17:08:30.407Z,63.03
2018-03-26T17:10:56.857Z,71.77
2018-03-26T17:13:23.988Z,64.30
2018-03-26T17:15:50.389Z,65.50
2018-03-26T17:18:16.776Z,70.37
2018-03-26T17:20:43.999Z,71.13
2018-03-26T17:23:10.400Z,72.47
2018-03-26T17:25:36.802Z,74.23
2018-03-26T17:28:03.319Z,64.40
2018-03-26T17:30:29.747Z,69.20
2018-03-26T17:32:57.194Z,82.90
2018-03-26T17:35:24.346Z,78.93
2018-03-26T17:37:50.736Z,77.73
2018-03-26T17:40:17.188Z,79.50
2018-03-26T17:42:43.547Z,77.50
2018-03-26T17:45:09.930Z,81.67
2018-03-26T17:47:36.385Z,82.30
2018-03-26T17:50:02.826Z,79.00
2018-03-26T17:52:29.993Z,82.47
2018-03-26T17:54:57.208Z,78.50
2018-03-26T17:57:23.624Z,84.83
2018-03-26T17:59:50.036Z,92.10
2018-03-26T18:02:16.431Z,87.40
2018-03-26T18:04:44.318Z,86.57
2018-03-26T18:07:11.452Z,81.33
2018-03-26T18:09:38.664Z,84.53
2018-03-26T18:12:05.076Z,88.90
2018-03-26T18:14:31.483Z,86.43
2018-03-26T18:16:58.652Z,87.37
2018-03-26T18:19:25.065Z,98.73
2018-03-26T18:21:52.223Z,95.33
2018-03-26T18:24:19.405Z,80.53
2018-03-26T18:26:45.848Z,88.37
2018-03-26T18:29:12.262Z,96.23
2018-03-26T18:31:38.648Z,93.50
2018-03-26T18:34:05.801Z,94.80
2018-03-26T18:36:32.989Z,90.57
2018-03-26T18:38:59.436Z,97.17
2018-03-26T18:41:25.846Z,97.90
2018-03-26T18:43:52.290Z,104.53
2018-03-26T18:46:18.711Z,101.23
2018-03-26T18:48:45.941Z,91.43
2018-03-26T18:51:13.128Z,97.07
2018-03-26T18:53:39.558Z,102.77
2018-03-26T18:56:05.958Z,98.83
2018-03-26T18:58:33.142Z,100.83
2018-03-26T19:00:59.597Z,95.60
2018-03-26T19:03:26.264Z,103.77
2018-03-26T19:05:53.438Z,93.30
2018-03-26T19:08:20.613Z,109.00
2018-03-26T19:10:47.050Z,92.70
2018-03-26T19:13:13.448Z,101.40
2018-03-26T19:15:40.612Z,113.40
2018-03-26T19:18:07.057Z,108.30
2018-03-26T19:20:33.458Z,110.20
2018-03-26T19:23:00.596Z,121.67
2018-03-26T19:25:27.752Z,123.93
2018-03-26T19:27:54.130Z,119.17
2018-03-26T19:30:20.548Z,112.80
2018-03-26T19:32:47.673Z,107.23
2018-03-26T19:35:14.061Z,110.53
2018-03-26T19:37:41.426Z,114.03
2018-03-26T19:40:07.838Z,106.83
2018-03-26T19:42:34.254Z,114.10
2018-03-26T19:45:00.685Z,122.50
2018-03-26T19:47:27.091Z,120.23
2018-03-26T19:49:54.235Z,119.10
2018-03-26T19:52:21.365Z,118.87
2018-03-26T19:54:47.716Z,124.77
2018-03-26T19:57:14.816Z,123.63
2018-03-26T19:59:41.178Z,125.90
2018-03-26T20:02:08.281Z,121.87
2018-03-26T20:04:34.691Z,133.77
2018-03-26T20:07:01.889Z,116.40
2018-03-26T20:09:28.393Z,115.13
2018-03-26T20:11:54.826Z,106.80
2018-03-26T20:14:21.299Z,106.97
2018-03-26T20:16:47.943Z,116.37
2018-03-26T20:19:14.362Z,115.77
2018-03-26T20:21:40.766Z,111.43
2018-03-26T20:24:07.197Z,114.70
2018-03-26T20:26:33.588Z,113.30
2018-03-26T20:29:00.723Z,111.30
2018-03-26T20:31:28.620Z,119.67
2018-03-26T20:33:55.795Z,106.63
2018-03-26T20:36:22.190Z,117.87
2018-03-26T20:38:49.315Z,121.33
2018-03-26T20:41:15.743Z,114.33
2018-03-26T20:43:42.136Z,111.93
2018-03-26T20:46:08.543Z,114.47
2018-03-26T20:48:35.730Z,107.90
2018-03-26T20:51:02.874Z,111.53
2018-03-26T20:53:29.307Z,105.83
2018-03-26T20:55:55.703Z,119.50
2018-03-26T20:58:22.811Z,105.23
2018-03-26T21:00:49.228Z,113.57
2018-03-26T21:03:15.615Z,115.13
2018-03-26T21:05:42.013Z,117.87
2018-03-26T21:08:08.411Z,111.17
2018-03-26T21:10:34.779Z,117.10
2018-03-26T21:13:01.206Z,113.73
2018-03-26T21:15:27.655Z,111.10
2018-03-26T21:17:54.058Z,120.57
2018-03-26T21:20:20.517Z,112.20
2018-03-26T21:22:46.913Z,118.43
2018-03-26T21:25:13.319Z,115.63
2018-03-26T21:27:40.489Z,109.27
2018-03-26T21:30:07.092Z,117.37
2018-03-26T21:32:34.245Z,111.60
2018-03-26T21:35:00.662Z,101.10
2018-03-26T21:37:27.054Z,109.10
2018-03-26T21:39:53.433Z,106.03
2018-03-26T21:42:19.823Z,129.80
2018-03-26T21:44:46.203Z,112.40
2018-03-26T21:47:13.395Z,113.60
2018-03-26T21:49:39.793Z,119.33
2018-03-26T21:52:06.187Z,118.27
2018-03-26T21:54:32.572Z,122.83
2018-03-26T21:56:59.718Z,124.70
2018-03-26T21:59:26.891Z,128.63
2018-03-26T22:01:53.314Z,134.33
2018-03-26T22:04:19.720Z,125.17
2018-03-26T22:06:46.844Z,131.87
2018-03-26T22:09:13.264Z,118.07
2018-03-26T22:11:39.703Z,123.67
2018-03-26T22:14:06.138Z,133.27
2018-03-26T22:16:32.552Z,123.47
2018-03-26T22:18:58.946Z,118.70
2018-03-26T22:21:26.127Z,127.50
2018-03-26T22:23:52.541Z,125.63
2018-03-26T22:26:18.958Z,121.27
2018-03-26T22:28:46.077Z,126.90
2018-03-26T22:31:12.471Z,128.40
2018-03-26T22:33:38.857Z,126.97
2018-03-26T22:36:05.980Z,128.97
2018-03-26T22:38:32.345Z,127.23
2018-03-26T22:40:59.528Z,137.27
2018-03-26T22:43:25.903Z,131.47
2018-03-26T22:45:52.288Z,128.67
2018-03-26T22:48:18.679Z,131.90
2018-03-26T22:50:45.811Z,138.83
2018-03-26T22:53:12.198Z,124.77
2018-03-26T22:55:38.659Z,134.60
2018-03-26T22:58:06.568Z,129.70
2018-03-26T23:00:32.988Z,139.57
2018-03-26T23:02:59.372Z,139.27
2018-03-26T23:05:25.743Z,137.77
2018-03-26T23:07:52.126Z,136.70
2018-03-26T23:10:18.517Z,132.70
2018-03-26T23:12:44.899Z,134.00
2018-03-26T23:15:11.315Z,137.17
2018-03-26T23:17:37.703Z,124.30
2018-03-26T23:20:04.188Z,125.77
2018-03-26T23:22:43.035Z,127.17
2018-03-26T23:25:09.410Z,126.00
2018-03-26T23:27:35.796Z,138.50
2018-03-26T23:30:02.461Z,129.50
2018-03-26T23:32:28.875Z,122.10
2018-03-26T23:34:55.249Z,127.90
2018-03-26T23:37:22.373Z,133.93
2018-03-26T23:39:48.755Z,137.60
2018-03-26T23:42:15.139Z,135.57
2018-03-26T23:44:41.545Z,132.70
2018-03-26T23:47:07.922Z,127.60
2018-03-26T23:49:35.051Z,116.67
2018-03-26T23:52:02.180Z,128.03
2018-03-26T23:54:28.577Z,123.33
2018-03-26T23:56:54.958Z,130.10
2018-03-26T23:59:21.365Z,127.83
